createdAt,value
2024-05-09T00:00:36.171Z,99796.84
2024-05-09T00:01:41.453Z,99796.31
2024-05-09T00:02:43.381Z,99794.69
2024-05-09T00:03:47.029Z,99792.78
2024-05-09T00:04:49.030Z,99787.41
2024-05-09T00:06:52.746Z,99795.50
2024-05-09T00:07:54.616Z,99791.16
2024-05-09T00:08:56.455Z,99788.47
2024-05-09T00:09:58.274Z,99795.50
2024-05-09T00:11:00.207Z,99794.69
2024-05-09T00:12:02.338Z,99793.09
2024-05-09T00:13:04.483Z,99792.28
2024-05-09T00:14:06.377Z,99793.34
2024-05-09T00:15:08.717Z,99789.84
2024-05-09T00:16:10.586Z,99792.53
2024-05-09T00:17:12.608Z,99789.84
2024-05-09T00:18:14.659Z,99792.78
2024-05-09T00:19:16.698Z,99789.28
2024-05-09T00:20:24.482Z,99783.09
2024-05-09T00:21:30.549Z,99786.03
2024-05-09T00:22:32.531Z,99783.34
2024-05-09T00:23:34.538Z,99788.47
2024-05-09T00:24:36.537Z,99783.59
2024-05-09T00:25:38.696Z,99784.69
2024-05-09T00:26:40.606Z,99787.84
2024-05-09T00:27:42.491Z,99786.78
2024-05-09T00:28:44.465Z,99793.25
2024-05-09T00:29:46.570Z,99792.44
2024-05-09T00:30:48.432Z,99791.34
2024-05-09T00:31:50.369Z,99781.94
2024-05-09T00:32:52.406Z,99785.16
2024-05-09T00:33:54.652Z,99780.88
2024-05-09T00:34:56.823Z,99787.03
2024-05-09T00:35:58.784Z,99785.44
2024-05-09T00:37:00.657Z,99777.63
2024-05-09T00:38:02.639Z,99784.09
2024-05-09T00:39:04.563Z,99787.34
2024-05-09T00:40:09.582Z,99791.91
2024-05-09T00:41:19.716Z,99784.91
2024-05-09T00:42:21.797Z,99795.66
2024-05-09T00:43:23.629Z,99790.28
2024-05-09T00:44:25.588Z,99785.97
2024-05-09T00:45:27.462Z,99784.09
2024-05-09T00:46:29.541Z,99785.16
2024-05-09T00:47:31.637Z,99782.47
2024-05-09T00:48:34.748Z,99774.66
2024-05-09T00:49:37.247Z,99787.03
2024-05-09T00:50:42.322Z,99776.53
2024-05-09T00:51:45.831Z,99782.97
2024-05-09T00:52:48.158Z,99776.78
2024-05-09T00:53:50.092Z,99782.97
2024-05-09T00:54:52.053Z,99775.41
2024-05-09T00:55:56.346Z,99784.31
2024-05-09T00:56:58.239Z,99783.22
2024-05-09T00:58:00.525Z,99779.72
2024-05-09T00:59:03.405Z,99774.34
2024-05-09T01:00:18.367Z,99781.88
2024-05-09T01:01:29.423Z,99788.88
2024-05-09T01:02:32.688Z,99780.81
2024-05-09T01:03:34.834Z,99786.44
2024-05-09T01:04:36.952Z,99781.88
2024-05-09T01:05:39.899Z,99785.94
2024-05-09T01:06:42.229Z,99787.56
2024-05-09T01:07:44.272Z,99786.22
2024-05-09T01:08:46.225Z,99779.78
2024-05-09T01:09:48.059Z,99778.16
2024-05-09T01:10:50.116Z,99778.97
2024-05-09T01:11:52.073Z,99778.69
2024-05-09T01:12:54.060Z,99774.66
2024-05-09T01:13:55.919Z,99770.59
2024-05-09T01:14:57.871Z,99774.09
2024-05-09T01:15:59.852Z,99781.34
2024-05-09T01:17:01.808Z,99774.34
2024-05-09T01:18:10.718Z,99779.72
2024-05-09T01:19:29.662Z,99780.81
2024-05-09T01:20:40.133Z,99777.84
2024-05-09T01:21:44.954Z,99779.72
2024-05-09T01:22:47.894Z,99788.38
2024-05-09T01:23:49.743Z,99782.16
2024-05-09T01:24:52.334Z,99779.72
2024-05-09T01:25:54.268Z,99776.78
2024-05-09T01:26:56.221Z,99783.22
2024-05-09T01:27:58.052Z,99781.59
2024-05-09T01:28:59.956Z,99783.50
2024-05-09T01:30:03.053Z,99784.31
2024-05-09T01:31:05.949Z,99781.88
2024-05-09T01:32:07.877Z,99775.66
2024-05-09T01:33:11.655Z,99781.06
2024-05-09T01:34:14.496Z,99781.34
2024-05-09T01:35:16.545Z,99780.25
2024-05-09T01:36:18.701Z,99782.41
2024-05-09T01:37:20.597Z,99775.16
2024-05-09T01:38:22.503Z,99777.03
2024-05-09T01:39:24.593Z,99776.22
2024-05-09T01:40:36.194Z,99782.41
2024-05-09T01:41:40.926Z,99778.09
2024-05-09T01:42:42.769Z,99777.53
2024-05-09T01:43:44.673Z,99777.53
2024-05-09T01:44:47.074Z,99774.28
2024-05-09T01:45:48.958Z,99785.06
2024-05-09T01:46:50.869Z,99782.13
2024-05-09T01:47:52.912Z,99775.38
2024-05-09T01:48:55.115Z,99781.81
2024-05-09T01:49:57.102Z,99787.19
2024-05-09T01:50:59.031Z,99784.22
2024-05-09T01:52:00.925Z,99779.63
2024-05-09T01:53:02.919Z,99778.31
2024-05-09T01:54:04.811Z,99776.69
2024-05-09T01:55:09.483Z,99778.31
2024-05-09T01:56:11.401Z,99784.50
2024-05-09T01:57:13.226Z,99782.34
2024-05-09T01:58:15.061Z,99779.63
2024-05-09T01:59:16.921Z,99775.88
2024-05-09T02:00:30.020Z,99772.38
2024-05-09T02:01:56.222Z,99781.22
2024-05-09T02:02:59.835Z,99777.69
2024-05-09T02:04:02.327Z,99780.94
2024-05-09T02:05:04.830Z,99783.38
2024-05-09T02:06:06.992Z,99783.38
2024-05-09T02:07:08.983Z,99772.88
2024-05-09T02:08:15.401Z,99779.06
2024-05-09T02:09:17.538Z,99779.88
2024-05-09T02:10:26.166Z,99772.88
2024-05-09T02:11:41.224Z,99781.50
2024-05-09T02:12:43.116Z,99783.09
2024-05-09T02:13:44.935Z,99779.31
2024-05-09T02:14:46.799Z,99777.50
2024-05-09T02:15:52.429Z,99775.31
2024-05-09T02:16:54.408Z,99780.13
2024-05-09T02:17:59.215Z,99780.13
2024-05-09T02:19:01.777Z,99779.31
2024-05-09T02:20:06.059Z,99786.59
2024-05-09T02:21:08.924Z,99780.66
2024-05-09T02:22:10.895Z,99782.78
2024-05-09T02:23:13.975Z,99781.72
2024-05-09T02:24:15.947Z,99779.84
2024-05-09T02:25:17.779Z,99782.78
2024-05-09T02:26:19.746Z,99788.47
2024-05-09T02:27:21.696Z,99780.13
2024-05-09T02:28:23.662Z,99779.88
2024-05-09T02:29:25.614Z,99783.38
2024-05-09T02:30:37.891Z,99782.31
2024-05-09T02:31:42.779Z,99785.56
2024-05-09T02:32:44.763Z,99784.50
2024-05-09T02:33:47.091Z,99782.31
2024-05-09T02:34:49.207Z,99777.75
2024-05-09T02:35:51.126Z,99784.50
2024-05-09T02:36:56.211Z,99789.06
2024-05-09T02:37:58.095Z,99786.63
2024-05-09T02:38:59.961Z,99787.44
2024-05-09T02:40:01.832Z,99786.88
2024-05-09T02:41:03.836Z,99788.25
2024-05-09T02:42:05.855Z,99780.19
2024-05-09T02:43:10.227Z,99789.31
2024-05-09T02:44:13.200Z,99794.72
2024-05-09T02:45:15.188Z,99793.66
2024-05-09T02:46:17.000Z,99792.28
2024-05-09T02:47:18.941Z,99790.91
2024-05-09T02:48:21.029Z,99788.22
2024-05-09T02:49:23.076Z,99790.34
2024-05-09T02:50:33.531Z,99796.81
2024-05-09T02:51:39.937Z,99789.78
2024-05-09T02:52:41.827Z,99789.78
2024-05-09T02:53:43.664Z,99788.16
2024-05-09T02:54:48.036Z,99791.41
2024-05-09T02:55:49.906Z,99793.03
2024-05-09T02:56:51.898Z,99790.84
2024-05-09T02:57:53.739Z,99792.47
2024-05-09T02:58:56.921Z,99793.03
2024-05-09T02:59:58.804Z,99796.78
2024-05-09T03:01:00.717Z,99791.66
2024-05-09T03:02:02.736Z,99793.28
2024-05-09T03:03:05.930Z,99791.16
2024-05-09T03:04:08.152Z,99793.28
2024-05-09T03:05:10.808Z,99788.72
2024-05-09T03:06:12.711Z,99790.34
2024-05-09T03:07:14.539Z,99787.09
2024-05-09T03:08:16.437Z,99788.97
2024-05-09T03:09:18.674Z,99791.91
2024-05-09T03:10:25.581Z,99791.91
2024-05-09T03:11:30.597Z,99787.59
2024-05-09T03:12:32.994Z,99787.03
2024-05-09T03:13:35.390Z,99786.78
2024-05-09T03:14:37.231Z,99789.22
2024-05-09T03:15:39.355Z,99782.22
2024-05-09T03:16:41.218Z,99794.59
2024-05-09T03:17:43.369Z,99790.03
2024-05-09T03:18:45.892Z,99786.28
2024-05-09T03:19:47.786Z,99794.59
2024-05-09T03:20:49.813Z,99786.28
2024-05-09T03:21:51.663Z,99791.09
2024-05-09T03:22:56.367Z,99784.91
2024-05-09T03:23:58.830Z,99785.16
2024-05-09T03:25:00.670Z,99785.16
2024-05-09T03:26:02.577Z,99785.16
2024-05-09T03:27:04.599Z,99789.72
2024-05-09T03:28:06.926Z,99788.66
2024-05-09T03:29:08.894Z,99793.50
2024-05-09T03:30:15.481Z,99787.84
2024-05-09T03:31:20.419Z,99786.75
2024-05-09T03:32:22.344Z,99791.06
2024-05-09T03:33:24.585Z,99786.47
2024-05-09T03:34:26.728Z,99795.63
2024-05-09T03:35:28.612Z,99792.41
2024-05-09T03:36:30.463Z,99794.03
2024-05-09T03:37:33.025Z,99797.50
2024-05-09T03:38:39.876Z,99795.91
2024-05-09T03:39:41.987Z,99795.09
2024-05-09T03:40:48.604Z,99801.00
2024-05-09T03:41:51.068Z,99796.72
2024-05-09T03:42:52.904Z,99802.09
2024-05-09T03:43:54.778Z,99798.84
2024-05-09T03:44:57.951Z,99797.78
2024-05-09T03:45:59.825Z,99803.44
2024-05-09T03:47:01.740Z,99806.38
2024-05-09T03:48:03.817Z,99804.50
2024-05-09T03:49:06.055Z,99803.44
2024-05-09T03:50:15.140Z,99802.09
2024-05-09T03:51:20.068Z,99803.69
2024-05-09T03:52:21.965Z,99814.22
2024-05-09T03:53:23.929Z,99805.56
2024-05-09T03:54:25.881Z,99803.97
2024-05-09T03:55:28.136Z,99799.94
2024-05-09T03:56:30.094Z,99807.47
2024-05-09T03:57:32.059Z,99803.44
2024-05-09T03:58:34.146Z,99804.81
2024-05-09T03:59:37.012Z,99802.94
2024-05-09T04:00:40.139Z,99809.13
2024-05-09T04:01:42.483Z,99811.25
2024-05-09T04:02:47.553Z,99797.81
2024-05-09T04:03:49.598Z,99796.19
2024-05-09T04:04:51.738Z,99803.16
2024-05-09T04:05:53.705Z,99808.00
2024-05-09T04:06:55.554Z,99810.69
2024-05-09T04:07:57.500Z,99807.44
2024-05-09T04:08:59.375Z,99809.88
2024-05-09T04:10:01.203Z,99810.69
2024-05-09T04:11:03.160Z,99803.69
2024-05-09T04:12:07.842Z,99808.25
2024-05-09T04:13:11.027Z,99806.88
2024-05-09T04:14:13.076Z,99813.31
2024-05-09T04:15:15.325Z,99807.94
2024-05-09T04:16:17.167Z,99810.63
2024-05-09T04:17:19.100Z,99810.06
2024-05-09T04:18:21.117Z,99813.56
2024-05-09T04:19:23.091Z,99810.06
2024-05-09T04:20:35.822Z,99814.13
2024-05-09T04:21:41.120Z,99819.78
2024-05-09T04:22:43.182Z,99818.69
2024-05-09T04:23:45.067Z,99820.84
2024-05-09T04:24:47.646Z,99815.44
2024-05-09T04:25:49.538Z,99825.97
2024-05-09T04:26:51.498Z,99815.44
2024-05-09T04:27:55.965Z,99811.41
2024-05-09T04:28:58.338Z,99812.19
2024-05-09T04:30:00.383Z,99824.59
2024-05-09T04:31:02.294Z,99814.91
2024-05-09T04:32:05.226Z,99821.38
2024-05-09T04:33:09.125Z,99814.91
2024-05-09T04:34:13.165Z,99823.25
2024-05-09T04:35:18.406Z,99817.06
2024-05-09T04:36:20.244Z,99828.06
2024-05-09T04:37:22.085Z,99816.75
2024-05-09T04:38:24.140Z,99820.81
2024-05-09T04:39:26.036Z,99823.50
2024-05-09T04:40:33.362Z,99823.25
2024-05-09T04:41:39.416Z,99822.69
2024-05-09T04:42:41.763Z,99817.81
2024-05-09T04:43:43.718Z,99821.31
2024-05-09T04:44:45.550Z,99826.94
2024-05-09T04:45:47.507Z,99823.19
2024-05-09T04:46:49.425Z,99819.94
2024-05-09T04:47:51.487Z,99819.13
2024-05-09T04:48:54.316Z,99820.50
2024-05-09T04:49:56.317Z,99827.44
2024-05-09T04:50:58.182Z,99825.56
2024-05-09T04:52:00.057Z,99824.50
2024-05-09T04:53:01.961Z,99822.63
2024-05-09T04:54:03.940Z,99822.06
2024-05-09T04:55:06.178Z,99821.56
2024-05-09T04:56:08.967Z,99821.56
2024-05-09T04:57:10.788Z,99822.38
2024-05-09T04:58:12.650Z,99826.44
2024-05-09T04:59:14.556Z,99824.81
2024-05-09T05:00:21.893Z,99832.06
2024-05-09T05:01:30.834Z,99830.69
2024-05-09T05:02:32.946Z,99835.28
2024-05-09T05:03:35.025Z,99835.28
2024-05-09T05:04:37.085Z,99842.28
2024-05-09T05:05:41.233Z,99834.22
2024-05-09T05:06:43.447Z,99832.84
2024-05-09T05:07:45.333Z,99835.28
2024-05-09T05:08:47.198Z,99832.84
2024-05-09T05:09:49.114Z,99836.91
2024-05-09T05:10:51.053Z,99837.72
2024-05-09T05:11:53.115Z,99833.13
2024-05-09T05:13:13.846Z,99832.63
2024-05-09T05:14:15.842Z,99831.50
2024-05-09T05:15:17.827Z,99829.88
2024-05-09T05:16:19.681Z,99832.59
2024-05-09T05:17:21.668Z,99838.28
2024-05-09T05:18:24.492Z,99834.50
2024-05-09T05:19:26.604Z,99831.56
2024-05-09T05:20:33.518Z,99836.91
2024-05-09T05:21:36.085Z,99835.28
2024-05-09T05:22:37.960Z,99836.91
2024-05-09T05:23:41.116Z,99834.50
2024-05-09T05:24:43.712Z,99833.44
2024-05-09T05:25:48.173Z,99842.34
2024-05-09T05:26:50.338Z,99843.41
2024-05-09T05:27:52.478Z,99842.91
2024-05-09T05:28:54.472Z,99847.75
2024-05-09T05:29:56.364Z,99849.38
2024-05-09T05:30:58.295Z,99843.16
2024-05-09T05:32:00.274Z,99838.84
2024-05-09T05:33:02.569Z,99845.03
2024-05-09T05:34:04.712Z,99838.31
2024-05-09T05:35:06.722Z,99852.31
2024-05-09T05:36:09.576Z,99843.16
2024-05-09T05:37:11.415Z,99839.66
2024-05-09T05:38:13.595Z,99852.88
2024-05-09T05:39:15.484Z,99849.88
2024-05-09T05:40:27.600Z,99843.97
2024-05-09T05:41:34.951Z,99840.72
2024-05-09T05:42:36.853Z,99846.94
2024-05-09T05:43:38.708Z,99842.34
2024-05-09T05:44:40.560Z,99842.91
2024-05-09T05:45:42.428Z,99848.28
2024-05-09T05:46:44.438Z,99847.19
2024-05-09T05:47:46.650Z,99851.50
2024-05-09T05:48:48.683Z,99846.94
2024-05-09T05:49:50.617Z,99852.31
2024-05-09T05:50:52.540Z,99847.75
2024-05-09T05:51:54.451Z,99848.81
2024-05-09T05:52:56.398Z,99848.81
2024-05-09T05:53:58.502Z,99843.72
2024-05-09T05:55:00.338Z,99835.06
2024-05-09T05:56:02.300Z,99843.72
2024-05-09T05:57:04.492Z,99848.53
2024-05-09T05:58:10.694Z,99842.91
2024-05-09T05:59:15.042Z,99842.34
2024-05-09T06:00:26.068Z,99843.16
2024-05-09T06:01:32.294Z,99849.34
2024-05-09T06:02:35.269Z,99845.03
2024-05-09T06:03:37.371Z,99849.34
2024-05-09T06:04:39.870Z,99845.84
2024-05-09T06:05:46.118Z,99856.06
2024-05-09T06:06:48.786Z,99853.66
2024-05-09T06:07:50.605Z,99848.28
2024-05-09T06:08:52.525Z,99849.09
2024-05-09T06:09:54.533Z,99857.41
2024-05-09T06:10:56.473Z,99854.72
2024-05-09T06:11:58.469Z,99850.41
2024-05-09T06:13:00.366Z,99844.22
2024-05-09T06:14:02.506Z,99849.59
2024-05-09T06:15:04.827Z,99852.53
2024-05-09T06:16:06.915Z,99845.53
2024-05-09T06:17:08.884Z,99854.66
2024-05-09T06:18:12.324Z,99855.47
2024-05-09T06:19:14.820Z,99863.78
2024-05-09T06:20:23.885Z,99858.41
2024-05-09T06:21:33.495Z,99859.47
2024-05-09T06:22:35.501Z,99854.41
2024-05-09T06:23:47.846Z,99856.28
2024-05-09T06:24:49.695Z,99858.41
2024-05-09T06:25:51.685Z,99861.09
2024-05-09T06:26:53.511Z,99858.41
2024-05-09T06:27:55.508Z,99862.72
2024-05-09T06:28:57.429Z,99855.72
2024-05-09T06:29:59.296Z,99860.03
2024-05-09T06:31:01.948Z,99863.28
2024-05-09T06:32:04.731Z,99855.22
2024-05-09T06:33:08.267Z,99865.72
2024-05-09T06:34:10.705Z,99859.53
2024-05-09T06:35:12.670Z,99872.75
2024-05-09T06:36:14.501Z,99868.16
2024-05-09T06:37:16.363Z,99864.66
2024-05-09T06:38:18.269Z,99861.41
2024-05-09T06:39:20.157Z,99864.66
2024-05-09T06:40:25.882Z,99868.16
2024-05-09T06:41:36.190Z,99871.38
2024-05-09T06:42:38.078Z,99862.53
2024-05-09T06:43:39.936Z,99868.69
2024-05-09T06:44:41.810Z,99864.66
2024-05-09T06:45:43.956Z,99864.91
2024-05-09T06:46:46.752Z,99863.84
2024-05-09T06:47:48.877Z,99863.28
2024-05-09T06:48:51.095Z,99871.38
2024-05-09T06:49:53.220Z,99872.19
2024-05-09T06:50:55.164Z,99876.25
2024-05-09T06:51:57.112Z,99879.75
2024-05-09T06:52:58.929Z,99864.41
2024-05-09T06:54:00.792Z,99871.38
2024-05-09T06:55:02.631Z,99867.63
2024-05-09T06:56:04.735Z,99866.00
2024-05-09T06:57:06.654Z,99874.09
2024-05-09T06:58:09.509Z,99876.25
2024-05-09T06:59:11.571Z,99867.09
2024-05-09T07:00:19.199Z,99863.06
2024-05-09T07:01:29.257Z,99868.69
2024-05-09T07:02:32.157Z,99881.09
2024-05-09T07:03:34.899Z,99875.19
2024-05-09T07:04:36.914Z,99871.94
2024-05-09T07:05:38.906Z,99876.50
2024-05-09T07:06:41.026Z,99883.50
2024-05-09T07:07:42.862Z,99873.56
2024-05-09T07:08:44.753Z,99873.56
2024-05-09T07:09:46.648Z,99878.13
2024-05-09T07:10:48.630Z,99872.75
2024-05-09T07:12:28.199Z,99866.78
2024-05-09T07:13:41.134Z,99874.88
2024-05-09T07:14:58.905Z,99882.69
2024-05-09T07:16:06.018Z,99876.50
2024-05-09T07:17:13.164Z,99873.56
2024-05-09T07:18:19.797Z,99870.88
2024-05-09T07:19:42.297Z,99886.22
2024-05-09T07:20:52.704Z,99882.16
2024-05-09T07:22:05.528Z,99874.38
2024-05-09T07:23:11.131Z,99885.13
2024-05-09T07:24:13.142Z,99881.38
2024-05-09T07:25:15.340Z,99889.69
2024-05-09T07:26:18.448Z,99879.75
2024-05-09T07:27:20.604Z,99878.94
2024-05-09T07:28:22.493Z,99880.00
2024-05-09T07:29:24.303Z,99886.44
2024-05-09T07:30:33.004Z,99881.06
2024-05-09T07:31:36.246Z,99883.19
2024-05-09T07:32:38.218Z,99890.19
2024-05-09T07:33:40.412Z,99884.81
2024-05-09T07:34:42.422Z,99880.25
2024-05-09T07:35:44.392Z,99887.25
2024-05-09T07:36:46.808Z,99883.75
2024-05-09T07:37:50.208Z,99890.44
2024-05-09T07:38:52.182Z,99882.38
2024-05-09T07:39:54.028Z,99885.63
2024-05-09T07:40:55.885Z,99885.88
2024-05-09T07:41:57.725Z,99887.75
2024-05-09T07:42:59.609Z,99885.06
2024-05-09T07:44:01.596Z,99892.31
2024-05-09T07:45:20.890Z,99890.19
2024-05-09T07:47:36.428Z,99893.94
2024-05-09T07:49:13.667Z,99899.56
2024-05-09T07:50:54.909Z,99900.88
2024-05-09T07:52:23.777Z,99890.69
2024-05-09T07:53:21.834Z,99886.94
2024-05-09T07:53:38.189Z,99894.44
2024-05-09T07:54:40.172Z,99896.06
2024-05-09T07:55:42.179Z,99892.31
2024-05-09T07:56:44.405Z,99890.44
2024-05-09T07:57:46.398Z,99890.19
2024-05-09T07:58:50.366Z,99892.88
2024-05-09T07:59:52.240Z,99890.44
2024-05-09T08:00:54.512Z,99893.94
2024-05-09T08:01:56.589Z,99892.88
2024-05-09T08:02:58.642Z,99889.38
2024-05-09T08:04:00.683Z,99886.69
2024-05-09T08:05:02.815Z,99888.56
2024-05-09T08:06:05.086Z,99882.69
2024-05-09T08:07:06.924Z,99894.75
2024-05-09T08:08:09.085Z,99892.88
2024-05-09T08:09:16.675Z,99897.19
2024-05-09T08:10:24.678Z,99880.25
2024-05-09T08:11:32.574Z,99898.00
2024-05-09T08:12:34.512Z,99895.06
2024-05-09T08:13:36.410Z,99892.13
2024-05-09T08:14:38.234Z,99896.69
2024-05-09T08:15:40.148Z,99895.88
2024-05-09T08:16:42.059Z,99898.84
2024-05-09T08:17:43.958Z,99897.78
2024-05-09T08:18:45.926Z,99901.53
2024-05-09T08:19:48.122Z,99901.53
2024-05-09T08:20:50.126Z,99901.28
2024-05-09T08:21:52.027Z,99897.53
2024-05-09T08:22:53.846Z,99903.16
2024-05-09T08:23:56.055Z,99907.25
2024-05-09T08:24:58.728Z,99905.34
2024-05-09T08:26:00.639Z,99912.38
2024-05-09T08:27:02.589Z,99902.41
2024-05-09T08:28:05.403Z,99905.91
2024-05-09T08:29:07.429Z,99907.00
2024-05-09T08:30:15.594Z,99905.91
2024-05-09T08:31:23.746Z,99904.28
2024-05-09T08:32:27.568Z,99902.16
2024-05-09T08:33:31.977Z,99905.66
2024-05-09T08:34:34.006Z,99902.16
2024-05-09T08:35:36.531Z,99900.53
2024-05-09T08:36:40.041Z,99898.09
2024-05-09T08:37:43.713Z,99907.81
2024-05-09T08:38:45.657Z,99901.59
2024-05-09T08:39:47.557Z,99900.78
2024-05-09T08:40:49.827Z,99906.72
2024-05-09T08:41:51.959Z,99907.53
2024-05-09T08:42:56.249Z,99902.16
2024-05-09T08:43:58.033Z,99899.16
2024-05-09T08:44:59.919Z,99896.72
2024-05-09T08:46:04.763Z,99904.78
2024-05-09T08:47:09.350Z,99902.91
2024-05-09T08:48:12.952Z,99901.03
2024-05-09T08:49:16.540Z,99898.09
2024-05-09T08:50:28.903Z,99907.25
2024-05-09T08:51:37.972Z,99897.53
2024-05-09T08:52:39.926Z,99908.88
2024-05-09T08:53:41.859Z,99902.66
2024-05-09T08:54:45.147Z,99902.41
2024-05-09T08:55:47.404Z,99900.53
2024-05-09T08:56:51.432Z,99899.47
2024-05-09T08:57:54.197Z,99892.47
2024-05-09T08:58:59.863Z,99896.78
2024-05-09T09:00:09.919Z,99898.41
2024-05-09T09:01:14.708Z,99898.16
2024-05-09T09:02:18.461Z,99890.09
2024-05-09T09:03:25.353Z,99899.75
2024-05-09T09:04:28.552Z,99898.97
2024-05-09T09:05:31.740Z,99897.34
2024-05-09T09:06:35.502Z,99899.22
2024-05-09T09:07:40.456Z,99898.66
2024-05-09T09:08:42.569Z,99902.66
2024-05-09T09:09:45.913Z,99898.91
2024-05-09T09:10:48.955Z,99905.34
2024-05-09T09:11:50.902Z,99904.28
2024-05-09T09:12:59.661Z,99904.28
2024-05-09T09:14:01.564Z,99904.28
2024-05-09T09:15:03.568Z,99902.16
2024-05-09T09:16:06.892Z,99906.72
2024-05-09T09:17:16.089Z,99906.72
2024-05-09T09:18:18.816Z,99904.84
2024-05-09T09:19:23.627Z,99907.53
2024-05-09T09:20:34.120Z,99907.81
2024-05-09T09:21:38.605Z,99912.94
2024-05-09T09:22:40.493Z,99904.84
2024-05-09T09:23:43.499Z,99907.53
2024-05-09T09:24:45.739Z,99902.16
2024-05-09T09:25:47.711Z,99910.25
2024-05-09T09:26:49.590Z,99912.13
2024-05-09T09:27:51.710Z,99906.72
2024-05-09T09:28:53.691Z,99911.06
2024-05-09T09:29:57.078Z,99912.94
2024-05-09T09:31:05.477Z,99911.88
2024-05-09T09:32:08.754Z,99910.25
2024-05-09T09:33:11.286Z,99911.31
2024-05-09T09:34:13.451Z,99906.22
2024-05-09T09:35:15.891Z,99912.44
2024-05-09T09:36:18.619Z,99905.09
2024-05-09T09:37:28.441Z,99909.69
2024-05-09T09:38:31.734Z,99907.81
2024-05-09T09:39:35.379Z,99901.59
2024-05-09T09:40:42.872Z,99904.53
2024-05-09T09:41:49.103Z,99909.69
2024-05-09T09:42:57.390Z,99905.91
2024-05-09T09:44:01.050Z,99898.09
2024-05-09T09:45:05.537Z,99905.91
2024-05-09T09:46:11.777Z,99909.19
2024-05-09T09:47:16.043Z,99904.84
2024-05-09T09:48:19.974Z,99899.47
2024-05-09T09:49:24.273Z,99905.41
2024-05-09T09:50:33.487Z,99901.91
2024-05-09T09:51:37.589Z,99907.03
2024-05-09T09:52:39.455Z,99895.75
2024-05-09T09:53:43.730Z,99902.75
2024-05-09T09:54:48.132Z,99898.69
2024-05-09T09:55:50.244Z,99902.44
2024-05-09T09:56:52.677Z,99896.53
2024-05-09T09:57:56.424Z,99897.34
2024-05-09T09:59:00.269Z,99894.66
2024-05-09T10:00:03.149Z,99894.38
2024-05-09T10:01:07.589Z,99890.91
2024-05-09T10:02:09.950Z,99893.31
2024-05-09T10:03:11.954Z,99903.25
2024-05-09T10:04:16.399Z,99900.31
2024-05-09T10:05:18.706Z,99897.88
2024-05-09T10:06:23.080Z,99899.75
2024-05-09T10:07:24.971Z,99896.53
2024-05-09T10:08:27.234Z,99892.47
2024-05-09T10:09:29.282Z,99895.16
2024-05-09T10:10:34.467Z,99899.47
2024-05-09T10:11:45.055Z,99896.78
2024-05-09T10:13:00.932Z,99896.78
2024-05-09T10:14:03.009Z,99897.84
2024-05-09T10:15:09.563Z,99891.41
2024-05-09T10:16:12.308Z,99893.28
2024-05-09T10:17:14.964Z,99898.41
2024-05-09T10:18:17.173Z,99895.97
2024-05-09T10:19:26.665Z,99900.28
2024-05-09T10:20:39.985Z,99903.22
2024-05-09T10:21:47.001Z,99896.47
2024-05-09T10:22:52.401Z,99896.47
2024-05-09T10:23:57.818Z,99898.91
2024-05-09T10:25:07.282Z,99899.97
2024-05-09T10:26:09.182Z,99895.97
2024-05-09T10:27:11.040Z,99899.72
2024-05-09T10:28:13.064Z,99899.72
2024-05-09T10:29:16.637Z,99896.47
2024-05-09T10:30:29.765Z,99896.78
2024-05-09T10:31:39.504Z,99897.03
2024-05-09T10:32:41.717Z,99888.97
2024-05-09T10:33:49.811Z,99884.41
2024-05-09T10:35:08.285Z,99895.97
2024-05-09T10:36:13.552Z,99882.78
2024-05-09T10:37:15.945Z,99888.72
2024-05-09T10:38:18.477Z,99894.91
2024-05-09T10:39:25.375Z,99888.47
2024-05-09T10:40:31.353Z,99887.66
2024-05-09T10:41:34.343Z,99890.09
2024-05-09T10:42:39.383Z,99894.66
2024-05-09T10:43:42.093Z,99897.34
2024-05-09T10:44:43.919Z,99890.91
2024-05-09T10:45:45.887Z,99890.09
2024-05-09T10:46:48.168Z,99894.66
2024-05-09T10:47:50.158Z,99894.38
2024-05-09T10:48:52.630Z,99895.47
2024-05-09T10:49:56.331Z,99889.28
2024-05-09T10:50:58.340Z,99889.00
2024-05-09T10:52:03.679Z,99890.91
2024-05-09T10:53:05.587Z,99890.91
2024-05-09T10:54:07.888Z,99887.94
2024-05-09T10:55:09.823Z,99889.56
2024-05-09T10:56:13.938Z,99892.50
2024-05-09T10:57:15.890Z,99886.03
2024-05-09T10:58:18.170Z,99886.03
2024-05-09T10:59:20.117Z,99883.34
2024-05-09T11:00:27.801Z,99882.84
2024-05-09T11:01:35.710Z,99883.09
2024-05-09T11:02:37.815Z,99875.53
2024-05-09T11:03:40.410Z,99880.97
2024-05-09T11:04:45.294Z,99878.28
2024-05-09T11:05:47.690Z,99880.97
2024-05-09T11:06:49.794Z,99878.84
2024-05-09T11:07:51.853Z,99877.22
2024-05-09T11:08:53.937Z,99876.41
2024-05-09T11:09:55.966Z,99873.72
2024-05-09T11:10:59.783Z,99874.53
2024-05-09T11:12:02.531Z,99879.66
2024-05-09T11:13:04.800Z,99872.16
2024-05-09T11:14:13.148Z,99870.25
2024-05-09T11:15:16.595Z,99877.78
2024-05-09T11:16:21.176Z,99876.16
2024-05-09T11:17:23.558Z,99877.53
2024-05-09T11:18:28.191Z,99872.94
2024-05-09T11:19:39.914Z,99882.09
2024-05-09T11:20:41.855Z,99875.66
2024-05-09T11:21:43.779Z,99881.31
2024-05-09T11:22:45.846Z,99874.28
2024-05-09T11:23:47.911Z,99877.53
2024-05-09T11:24:49.908Z,99879.16
2024-05-09T11:25:55.776Z,99871.91
2024-05-09T11:26:58.538Z,99875.66
2024-05-09T11:28:01.686Z,99873.53
2024-05-09T11:29:03.602Z,99879.16
2024-05-09T11:30:09.166Z,99873.78
2024-05-09T11:31:13.553Z,99875.66
2024-05-09T11:32:16.694Z,99870.53
2024-05-09T11:33:19.626Z,99871.09
2024-05-09T11:34:21.668Z,99870.28
2024-05-09T11:35:23.534Z,99872.97
2024-05-09T11:36:25.444Z,99872.72
2024-05-09T11:37:27.398Z,99869.22
2024-05-09T11:38:29.275Z,99868.91
2024-05-09T11:39:31.248Z,99867.03
2024-05-09T11:40:34.606Z,99862.22
2024-05-09T11:41:36.790Z,99870.53
2024-05-09T11:42:38.666Z,99868.13
2024-05-09T11:43:40.531Z,99867.31
2024-05-09T11:44:42.408Z,99861.94
2024-05-09T11:45:44.323Z,99860.06
2024-05-09T11:46:46.361Z,99866.50
2024-05-09T11:47:48.389Z,99863.81
2024-05-09T11:48:51.909Z,99861.94
2024-05-09T11:49:56.917Z,99867.56
2024-05-09T11:50:58.906Z,99857.06
2024-05-09T11:52:00.889Z,99862.44
2024-05-09T11:53:02.859Z,99858.94
2024-05-09T11:54:04.700Z,99859.50
2024-05-09T11:55:07.534Z,99861.13
2024-05-09T11:56:11.782Z,99860.31
2024-05-09T11:57:13.836Z,99862.19
2024-05-09T11:58:18.073Z,99861.63
2024-05-09T11:59:20.641Z,99864.31
2024-05-09T12:00:29.698Z,99860.00
2024-05-09T12:01:38.561Z,99859.44
2024-05-09T12:02:40.476Z,99866.69
2024-05-09T12:03:42.376Z,99861.31
2024-05-09T12:04:44.564Z,99854.63
2024-05-09T12:05:46.830Z,99863.75
2024-05-09T12:06:48.910Z,99871.84
2024-05-09T12:07:54.170Z,99862.94
2024-05-09T12:08:56.735Z,99859.44
2024-05-09T12:09:58.542Z,99857.56
2024-05-09T12:11:01.023Z,99856.75
2024-05-09T12:12:03.142Z,99863.44
2024-05-09T12:13:06.893Z,99857.56
2024-05-09T12:14:09.638Z,99856.44
2024-05-09T12:15:12.634Z,99852.94
2024-05-09T12:16:14.700Z,99860.75
2024-05-09T12:17:17.053Z,99860.50
2024-05-09T12:18:18.960Z,99853.50
2024-05-09T12:19:20.860Z,99858.88
2024-05-09T12:20:28.874Z,99853.50
2024-05-09T12:21:37.720Z,99849.75
2024-05-09T12:22:39.604Z,99850.56
2024-05-09T12:23:41.432Z,99852.75
2024-05-09T12:24:43.268Z,99847.63
2024-05-09T12:25:45.174Z,99845.72
2024-05-09T12:26:47.285Z,99844.09
2024-05-09T12:27:49.354Z,99852.19
2024-05-09T12:28:51.219Z,99839.53